Hami, China
Current Conditions -  °F | °C
As of 4:30 AM on Tuesday 27 Jan 2015 (Local Time) from ZWWW Reporting Station
Light Snow Light Snow  
Wind Chill:   Ceiling: Unl
Heat Index:   Visibility: 1.8mi
Dew Point:   Wind: 2mph
Humidity: 85%   Direction: NA
Pressure: 30.59"   Gusts: NA
Location:  42.8°N, 93.45°E
Report Text: ZWWW 262030Z VRB01MPS 3000 -SN BR FEW015 M16/M18 Q1036 NOSIG
Loading
Personal Weather Stations






























Interactive Weather Map New forecast layout! Learn more

10-Day Weather Forecast

Advertisements
Track Severe Weather on mobile